Terminal Aerodrome Forecast
Issued by NWS

Home | Current Version | Previous Version | Text Only | Print | Product List | Glossary On
Versions: 1 2 3 4 5 6 7 8 9 10 11 12 13 14 15 16 17
000
FTUS46 KEKA 261800 CCA
TAFUKI
TAF COR
KUKI 261800Z 2618/2718 VRB03KT P6SM OVC008
      TEMPO 2618/2619 SCT008
     FM261900 15006KT P6SM SCT012 BKN050
     FM262200 15010G18KT P6SM SCT050
     FM270200 VRB05KT P6SM SCT250
     FM270600 VRB03KT P6SM BKN010
     FM271500 VRB03KT P6SM BKN050=

USA.gov is the U.S. government's official web portal to all federal, state and local government web resources and services.